Strona główna
METAR-TAF:

METAR-TAF

Lotnisko :

Port lotniczy Teheran-Mehrabad

Teheran, Iran

Szerokość geograficzna: 35-41N, Długość geograficzna: 051-21E, wysokość: 1204 m

Aktualna obserwacja pogody

Raport powstał 14 minut temu, godzina 09:00 UTC
Wiatr 6 kt od południe
Temperatura 35°C
Wilgotność 13%
Ciśnienie 1007 hPa
Widzialność 10 km lub więcej
Brak chmur poniżej 1500 m i brak chmur cumulonimbus

METAR: OIII 190900Z 18006KT CAVOK 35/03 Q1007 A2974 NOSIG

czas: 13:44 (09:14 UTC)

Prognoza

Raport powstał 3 godziny i 44 minut temu, godzina 05:30 UTC
Prognoza ważna od 19 godzina 06 UTC do 20 godzina 12 UTC
Wiatr 8 kt od południowy wschód
Widzialność: 7000 m
Przejściowo
od 19 godzina 16 UTC do 19 godzina 24 UTC
Wiatr 19 kt od północny zachód

TAF: OIII 190530Z 1906/2012 14004MPS 7000 NSC TEMPO 1916/1924 32010MPS

Obserwacja i prognoza pogody dla ponad 4000 lotnisk (raport METAR i TAF).

Dostępne stacje oznaczono żółtymi i czerwonymi punktami na mapie.

Najedź kursorem aby zobaczyć nazwę stacji.

Kliknij aby zobaczyć obserwacje i prognozy pogody.

Aby zmienić mapę: kliknij na zielony przycisk z czarnym krzyżykiem, aby powiększyć; na zielony przycisk z myślnikiem, aby pomniejszyć; na zielone strzałki, aby przejść do map sąsiednich.


METAR-TAF: